Preview of NWS' New Version of Forecast
This preview is not operational and should not be used for support decisions.

Terminal Aerodrome Forecast (TAF)

Issued by National Weather Service (NWS)

                            
000
FTUS42 KKEY 211504 AAA
TAFEYW
TAF AMD
KEYW 211504Z 2115/2212 03011KT P6SM FEW035
     FM211800 03010KT P6SM SKC
     FM220100 04010KT P6SM FEW035
     FM220600 05011KT P6SM BKN035
     FM221000 08012G19KT P6SM VCSH BKN030=